sensor_id;sensor_type;location;lat;lon;timestamp;P1;durP1;ratioP1;P2;durP2;ratioP2
57720;SDS011;43562;43.064;0.160;2023-02-28T00:00:12;14.10;;;10.07;;
57720;SDS011;43562;43.064;0.160;2023-02-28T00:02:39;14.93;;;9.63;;
57720;SDS011;43562;43.064;0.160;2023-02-28T00:05:06;13.73;;;8.88;;
57720;SDS011;43562;43.064;0.160;2023-02-28T00:07:33;14.70;;;8.90;;
57720;SDS011;43562;43.064;0.160;2023-02-28T00:09:59;12.35;;;9.07;;
57720;SDS011;43562;43.064;0.160;2023-02-28T00:12:25;14.52;;;8.98;;
57720;SDS011;43562;43.064;0.160;2023-02-28T00:14:52;17.00;;;9.63;;
57720;SDS011;43562;43.064;0.160;2023-02-28T00:17:19;14.43;;;9.43;;
57720;SDS011;43562;43.064;0.160;2023-02-28T00:19:48;19.02;;;10.35;;
57720;SDS011;43562;43.064;0.160;2023-02-28T00:22:15;14.95;;;10.57;;
57720;SDS011;43562;43.064;0.160;2023-02-28T00:24:42;18.23;;;10.73;;
57720;SDS011;43562;43.064;0.160;2023-02-28T00:27:08;14.73;;;9.82;;
57720;SDS011;43562;43.064;0.160;2023-02-28T00:29:34;13.30;;;8.63;;
57720;SDS011;43562;43.064;0.160;2023-02-28T00:32:00;14.55;;;8.20;;
57720;SDS011;43562;43.064;0.160;2023-02-28T00:34:26;15.40;;;8.98;;
57720;SDS011;43562;43.064;0.160;2023-02-28T00:36:52;13.48;;;10.10;;
57720;SDS011;43562;43.064;0.160;2023-02-28T00:39:19;13.88;;;9.90;;
57720;SDS011;43562;43.064;0.160;2023-02-28T00:41:45;13.43;;;9.43;;
57720;SDS011;43562;43.064;0.160;2023-02-28T00:44:11;17.75;;;10.48;;
57720;SDS011;43562;43.064;0.160;2023-02-28T00:46:37;16.20;;;9.85;;
57720;SDS011;43562;43.064;0.160;2023-02-28T00:49:03;14.23;;;9.05;;
57720;SDS011;43562;43.064;0.160;2023-02-28T00:51:30;16.55;;;9.35;;
57720;SDS011;43562;43.064;0.160;2023-02-28T00:53:56;13.20;;;9.13;;
57720;SDS011;43562;43.064;0.160;2023-02-28T00:56:22;14.82;;;9.80;;
57720;SDS011;43562;43.064;0.160;2023-02-28T00:58:48;14.27;;;9.52;;
57720;SDS011;43562;43.064;0.160;2023-02-28T01:01:14;15.35;;;10.20;;
57720;SDS011;43562;43.064;0.160;2023-02-28T01:03:40;12.68;;;9.52;;
57720;SDS011;43562;43.064;0.160;2023-02-28T01:06:07;14.18;;;8.48;;
57720;SDS011;43562;43.064;0.160;2023-02-28T01:08:33;12.80;;;9.27;;
57720;SDS011;43562;43.064;0.160;2023-02-28T01:11:06;13.45;;;8.63;;
57720;SDS011;43562;43.064;0.160;2023-02-28T01:13:32;12.13;;;8.55;;
57720;SDS011;43562;43.064;0.160;2023-02-28T01:15:58;13.30;;;9.27;;
57720;SDS011;43562;43.064;0.160;2023-02-28T01:18:25;10.98;;;7.85;;
57720;SDS011;43562;43.064;0.160;2023-02-28T01:20:51;10.30;;;7.10;;
57720;SDS011;43562;43.064;0.160;2023-02-28T01:23:18;9.40;;;8.18;;
57720;SDS011;43562;43.064;0.160;2023-02-28T01:25:45;11.00;;;7.25;;
57720;SDS011;43562;43.064;0.160;2023-02-28T01:28:11;9.52;;;7.35;;
57720;SDS011;43562;43.064;0.160;2023-02-28T01:30:37;9.95;;;7.60;;
57720;SDS011;43562;43.064;0.160;2023-02-28T01:33:03;12.90;;;8.75;;
57720;SDS011;43562;43.064;0.160;2023-02-28T01:35:32;9.82;;;8.10;;
57720;SDS011;43562;43.064;0.160;2023-02-28T01:37:58;9.00;;;7.38;;
57720;SDS011;43562;43.064;0.160;2023-02-28T01:40:24;8.85;;;7.20;;
57720;SDS011;43562;43.064;0.160;2023-02-28T01:42:50;10.50;;;8.00;;
57720;SDS011;43562;43.064;0.160;2023-02-28T01:45:30;11.00;;;7.38;;
57720;SDS011;43562;43.064;0.160;2023-02-28T01:48:00;9.60;;;7.45;;
57720;SDS011;43562;43.064;0.160;2023-02-28T01:50:28;12.80;;;7.35;;
57720;SDS011;43562;43.064;0.160;2023-02-28T01:52:56;12.70;;;7.57;;
57720;SDS011;43562;43.064;0.160;2023-02-28T01:55:23;8.73;;;6.93;;
57720;SDS011;43562;43.064;0.160;2023-02-28T01:57:54;8.75;;;7.47;;
57720;SDS011;43562;43.064;0.160;2023-02-28T02:00:22;11.25;;;8.20;;
57720;SDS011;43562;43.064;0.160;2023-02-28T02:02:50;9.02;;;6.50;;
57720;SDS011;43562;43.064;0.160;2023-02-28T02:05:18;9.60;;;6.50;;
57720;SDS011;43562;43.064;0.160;2023-02-28T02:07:45;8.35;;;7.03;;
57720;SDS011;43562;43.064;0.160;2023-02-28T02:10:14;10.70;;;6.15;;
57720;SDS011;43562;43.064;0.160;2023-02-28T02:15:34;10.18;;;7.28;;
57720;SDS011;43562;43.064;0.160;2023-02-28T02:18:25;7.95;;;6.95;;
57720;SDS011;43562;43.064;0.160;2023-02-28T02:26:26;8.73;;;6.72;;
57720;SDS011;43562;43.064;0.160;2023-02-28T02:31:37;10.43;;;7.68;;
57720;SDS011;43562;43.064;0.160;2023-02-28T02:37:08;8.73;;;6.80;;
57720;SDS011;43562;43.064;0.160;2023-02-28T02:39:53;8.50;;;6.93;;
57720;SDS011;43562;43.064;0.160;2023-02-28T02:42:29;10.57;;;7.53;;
57720;SDS011;43562;43.064;0.160;2023-02-28T02:45:01;9.80;;;7.05;;
57720;SDS011;43562;43.064;0.160;2023-02-28T02:47:29;8.63;;;7.03;;
57720;SDS011;43562;43.064;0.160;2023-02-28T02:49:57;7.97;;;6.50;;
57720;SDS011;43562;43.064;0.160;2023-02-28T02:52:25;10.10;;;6.25;;
57720;SDS011;43562;43.064;0.160;2023-02-28T02:54:54;7.13;;;6.00;;
57720;SDS011;43562;43.064;0.160;2023-02-28T02:57:23;10.65;;;8.20;;
57720;SDS011;43562;43.064;0.160;2023-02-28T02:59:50;9.65;;;6.82;;
57720;SDS011;43562;43.064;0.160;2023-02-28T03:02:17;7.82;;;7.05;;
57720;SDS011;43562;43.064;0.160;2023-02-28T03:04:45;12.32;;;7.05;;
57720;SDS011;43562;43.064;0.160;2023-02-28T03:07:12;11.35;;;6.88;;
57720;SDS011;43562;43.064;0.160;2023-02-28T03:09:38;12.02;;;7.18;;
57720;SDS011;43562;43.064;0.160;2023-02-28T03:12:04;10.38;;;7.57;;
57720;SDS011;43562;43.064;0.160;2023-02-28T03:14:38;11.70;;;7.93;;
57720;SDS011;43562;43.064;0.160;2023-02-28T03:29:51;7.38;;;6.68;;
57720;SDS011;43562;43.064;0.160;2023-02-28T03:32:26;8.18;;;6.65;;
57720;SDS011;43562;43.064;0.160;2023-02-28T03:34:57;8.60;;;7.43;;
57720;SDS011;43562;43.064;0.160;2023-02-28T03:37:25;9.02;;;6.43;;
57720;SDS011;43562;43.064;0.160;2023-02-28T03:39:56;9.30;;;6.78;;
57720;SDS011;43562;43.064;0.160;2023-02-28T03:42:24;10.13;;;7.57;;
57720;SDS011;43562;43.064;0.160;2023-02-28T03:44:59;8.13;;;7.15;;
57720;SDS011;43562;43.064;0.160;2023-02-28T03:49:59;7.32;;;6.57;;
57720;SDS011;43562;43.064;0.160;2023-02-28T03:52:28;11.55;;;7.10;;
57720;SDS011;43562;43.064;0.160;2023-02-28T03:54:57;8.57;;;7.05;;
57720;SDS011;43562;43.064;0.160;2023-02-28T03:57:30;7.70;;;6.80;;
57720;SDS011;43562;43.064;0.160;2023-02-28T03:59:59;8.80;;;7.30;;
57720;SDS011;43562;43.064;0.160;2023-02-28T04:02:29;8.65;;;6.47;;
57720;SDS011;43562;43.064;0.160;2023-02-28T04:04:55;10.98;;;6.72;;
57720;SDS011;43562;43.064;0.160;2023-02-28T04:07:21;9.32;;;6.90;;
57720;SDS011;43562;43.064;0.160;2023-02-28T04:09:47;8.88;;;6.47;;
57720;SDS011;43562;43.064;0.160;2023-02-28T04:12:13;9.13;;;7.75;;
57720;SDS011;43562;43.064;0.160;2023-02-28T04:14:39;9.73;;;7.43;;
57720;SDS011;43562;43.064;0.160;2023-02-28T04:17:06;12.85;;;7.03;;
57720;SDS011;43562;43.064;0.160;2023-02-28T04:19:32;8.38;;;6.63;;
57720;SDS011;43562;43.064;0.160;2023-02-28T04:21:58;9.63;;;6.35;;
57720;SDS011;43562;43.064;0.160;2023-02-28T04:24:27;12.43;;;8.02;;
57720;SDS011;43562;43.064;0.160;2023-02-28T04:26:54;13.45;;;9.10;;
57720;SDS011;43562;43.064;0.160;2023-02-28T04:29:22;10.98;;;7.63;;
57720;SDS011;43562;43.064;0.160;2023-02-28T04:31:49;9.38;;;6.63;;
57720;SDS011;43562;43.064;0.160;2023-02-28T04:34:15;9.65;;;7.38;;
57720;SDS011;43562;43.064;0.160;2023-02-28T04:36:41;8.75;;;7.20;;
57720;SDS011;43562;43.064;0.160;2023-02-28T04:39:07;9.65;;;7.03;;
57720;SDS011;43562;43.064;0.160;2023-02-28T04:41:34;8.38;;;6.60;;
57720;SDS011;43562;43.064;0.160;2023-02-28T04:44:00;8.93;;;6.53;;
57720;SDS011;43562;43.064;0.160;2023-02-28T04:46:27;10.40;;;7.13;;
57720;SDS011;43562;43.064;0.160;2023-02-28T04:48:53;8.70;;;6.72;;
57720;SDS011;43562;43.064;0.160;2023-02-28T04:51:19;7.82;;;7.03;;
57720;SDS011;43562;43.064;0.160;2023-02-28T04:53:46;9.90;;;6.50;;
57720;SDS011;43562;43.064;0.160;2023-02-28T04:56:13;8.32;;;6.63;;
57720;SDS011;43562;43.064;0.160;2023-02-28T04:58:39;7.75;;;6.72;;
57720;SDS011;43562;43.064;0.160;2023-02-28T05:01:07;7.13;;;5.60;;
57720;SDS011;43562;43.064;0.160;2023-02-28T05:03:40;9.98;;;6.00;;
57720;SDS011;43562;43.064;0.160;2023-02-28T05:06:07;10.23;;;6.88;;
57720;SDS011;43562;43.064;0.160;2023-02-28T05:08:33;11.85;;;8.07;;
57720;SDS011;43562;43.064;0.160;2023-02-28T05:11:00;11.73;;;7.45;;
57720;SDS011;43562;43.064;0.160;2023-02-28T05:13:27;9.85;;;7.22;;
57720;SDS011;43562;43.064;0.160;2023-02-28T05:15:53;9.57;;;6.63;;
57720;SDS011;43562;43.064;0.160;2023-02-28T05:18:19;10.32;;;6.40;;
57720;SDS011;43562;43.064;0.160;2023-02-28T05:20:45;7.50;;;6.45;;
57720;SDS011;43562;43.064;0.160;2023-02-28T05:23:12;8.48;;;6.45;;
57720;SDS011;43562;43.064;0.160;2023-02-28T05:25:38;7.55;;;6.75;;
57720;SDS011;43562;43.064;0.160;2023-02-28T05:28:05;7.65;;;6.78;;
57720;SDS011;43562;43.064;0.160;2023-02-28T05:30:31;8.82;;;6.05;;
57720;SDS011;43562;43.064;0.160;2023-02-28T05:32:57;7.25;;;6.18;;
57720;SDS011;43562;43.064;0.160;2023-02-28T05:35:25;10.40;;;7.03;;
57720;SDS011;43562;43.064;0.160;2023-02-28T05:37:52;9.82;;;6.82;;
57720;SDS011;43562;43.064;0.160;2023-02-28T05:40:18;7.50;;;6.10;;
57720;SDS011;43562;43.064;0.160;2023-02-28T05:42:47;7.43;;;6.25;;
57720;SDS011;43562;43.064;0.160;2023-02-28T05:45:15;9.82;;;6.43;;
57720;SDS011;43562;43.064;0.160;2023-02-28T05:47:42;10.25;;;7.10;;
57720;SDS011;43562;43.064;0.160;2023-02-28T05:50:08;8.23;;;6.88;;
57720;SDS011;43562;43.064;0.160;2023-02-28T05:52:35;10.23;;;7.43;;
57720;SDS011;43562;43.064;0.160;2023-02-28T05:55:02;8.73;;;6.82;;
57720;SDS011;43562;43.064;0.160;2023-02-28T05:57:29;9.05;;;7.18;;
57720;SDS011;43562;43.064;0.160;2023-02-28T05:59:55;6.57;;;5.72;;
57720;SDS011;43562;43.064;0.160;2023-02-28T06:02:21;8.35;;;6.22;;
57720;SDS011;43562;43.064;0.160;2023-02-28T06:04:47;7.93;;;6.65;;
57720;SDS011;43562;43.064;0.160;2023-02-28T06:07:13;7.95;;;6.57;;
57720;SDS011;43562;43.064;0.160;2023-02-28T06:09:40;8.70;;;6.20;;
57720;SDS011;43562;43.064;0.160;2023-02-28T06:12:06;19.60;;;9.73;;
57720;SDS011;43562;43.064;0.160;2023-02-28T06:14:34;34.97;;;15.10;;
57720;SDS011;43562;43.064;0.160;2023-02-28T06:17:01;19.08;;;10.52;;
57720;SDS011;43562;43.064;0.160;2023-02-28T06:19:27;12.25;;;9.27;;
57720;SDS011;43562;43.064;0.160;2023-02-28T06:21:55;31.40;;;15.52;;
57720;SDS011;43562;43.064;0.160;2023-02-28T06:24:22;25.23;;;14.00;;
57720;SDS011;43562;43.064;0.160;2023-02-28T06:26:48;15.85;;;10.70;;
57720;SDS011;43562;43.064;0.160;2023-02-28T06:29:15;12.52;;;8.02;;
57720;SDS011;43562;43.064;0.160;2023-02-28T06:31:43;9.13;;;7.03;;
57720;SDS011;43562;43.064;0.160;2023-02-28T06:34:10;13.57;;;8.60;;
57720;SDS011;43562;43.064;0.160;2023-02-28T06:36:39;12.50;;;8.18;;
57720;SDS011;43562;43.064;0.160;2023-02-28T06:39:06;11.88;;;8.90;;
57720;SDS011;43562;43.064;0.160;2023-02-28T06:41:32;10.63;;;7.60;;
57720;SDS011;43562;43.064;0.160;2023-02-28T06:44:03;11.07;;;8.23;;
57720;SDS011;43562;43.064;0.160;2023-02-28T06:46:29;12.07;;;9.43;;
57720;SDS011;43562;43.064;0.160;2023-02-28T06:48:55;13.73;;;10.00;;
57720;SDS011;43562;43.064;0.160;2023-02-28T06:51:21;14.60;;;10.13;;
57720;SDS011;43562;43.064;0.160;2023-02-28T06:53:49;14.52;;;9.95;;
57720;SDS011;43562;43.064;0.160;2023-02-28T06:56:15;11.98;;;8.27;;
57720;SDS011;43562;43.064;0.160;2023-02-28T06:58:42;10.32;;;7.95;;
57720;SDS011;43562;43.064;0.160;2023-02-28T07:01:08;15.05;;;9.13;;
57720;SDS011;43562;43.064;0.160;2023-02-28T07:03:35;11.55;;;8.68;;
57720;SDS011;43562;43.064;0.160;2023-02-28T07:06:01;11.13;;;7.65;;
57720;SDS011;43562;43.064;0.160;2023-02-28T07:08:29;9.38;;;7.75;;
57720;SDS011;43562;43.064;0.160;2023-02-28T07:10:56;9.45;;;7.57;;
57720;SDS011;43562;43.064;0.160;2023-02-28T07:13:23;11.07;;;7.93;;
57720;SDS011;43562;43.064;0.160;2023-02-28T07:15:52;11.23;;;8.25;;
57720;SDS011;43562;43.064;0.160;2023-02-28T07:18:19;10.23;;;7.97;;
57720;SDS011;43562;43.064;0.160;2023-02-28T07:20:45;12.10;;;8.32;;
57720;SDS011;43562;43.064;0.160;2023-02-28T07:23:11;17.88;;;9.52;;
57720;SDS011;43562;43.064;0.160;2023-02-28T07:25:37;12.13;;;8.80;;
57720;SDS011;43562;43.064;0.160;2023-02-28T07:28:04;9.35;;;7.80;;
57720;SDS011;43562;43.064;0.160;2023-02-28T07:30:30;10.65;;;8.18;;
57720;SDS011;43562;43.064;0.160;2023-02-28T07:32:56;10.38;;;7.72;;
57720;SDS011;43562;43.064;0.160;2023-02-28T07:35:22;12.82;;;7.13;;
57720;SDS011;43562;43.064;0.160;2023-02-28T07:37:49;9.93;;;7.80;;
57720;SDS011;43562;43.064;0.160;2023-02-28T07:40:15;12.73;;;8.70;;
57720;SDS011;43562;43.064;0.160;2023-02-28T07:42:42;10.52;;;7.80;;
57720;SDS011;43562;43.064;0.160;2023-02-28T07:45:10;10.57;;;8.02;;
57720;SDS011;43562;43.064;0.160;2023-02-28T07:47:39;10.07;;;7.95;;
57720;SDS011;43562;43.064;0.160;2023-02-28T07:50:06;7.60;;;6.78;;
57720;SDS011;43562;43.064;0.160;2023-02-28T07:52:32;10.80;;;7.68;;
57720;SDS011;43562;43.064;0.160;2023-02-28T07:54:58;14.75;;;7.38;;
57720;SDS011;43562;43.064;0.160;2023-02-28T07:57:24;8.93;;;7.03;;
57720;SDS011;43562;43.064;0.160;2023-02-28T07:59:50;8.75;;;6.80;;
57720;SDS011;43562;43.064;0.160;2023-02-28T08:02:17;11.50;;;7.75;;
57720;SDS011;43562;43.064;0.160;2023-02-28T08:04:44;10.32;;;6.80;;
57720;SDS011;43562;43.064;0.160;2023-02-28T08:07:11;7.72;;;6.47;;
57720;SDS011;43562;43.064;0.160;2023-02-28T08:09:41;10.55;;;6.40;;
57720;SDS011;43562;43.064;0.160;2023-02-28T08:12:08;10.18;;;7.30;;
57720;SDS011;43562;43.064;0.160;2023-02-28T08:14:35;10.65;;;6.82;;
57720;SDS011;43562;43.064;0.160;2023-02-28T08:17:01;7.63;;;6.00;;
57720;SDS011;43562;43.064;0.160;2023-02-28T08:19:28;9.77;;;6.90;;
57720;SDS011;43562;43.064;0.160;2023-02-28T08:21:54;9.10;;;7.43;;
57720;SDS011;43562;43.064;0.160;2023-02-28T08:24:20;9.30;;;6.60;;
57720;SDS011;43562;43.064;0.160;2023-02-28T08:26:47;14.43;;;8.73;;
57720;SDS011;43562;43.064;0.160;2023-02-28T08:29:13;13.48;;;9.13;;
57720;SDS011;43562;43.064;0.160;2023-02-28T08:31:39;15.68;;;8.80;;
57720;SDS011;43562;43.064;0.160;2023-02-28T08:34:09;12.57;;;8.60;;
57720;SDS011;43562;43.064;0.160;2023-02-28T08:36:37;17.45;;;10.07;;
57720;SDS011;43562;43.064;0.160;2023-02-28T08:39:03;15.63;;;9.23;;
57720;SDS011;43562;43.064;0.160;2023-02-28T08:41:29;13.90;;;8.95;;
57720;SDS011;43562;43.064;0.160;2023-02-28T08:43:56;12.05;;;8.02;;
57720;SDS011;43562;43.064;0.160;2023-02-28T08:46:22;15.18;;;9.65;;
57720;SDS011;43562;43.064;0.160;2023-02-28T08:48:51;56.60;;;25.88;;
57720;SDS011;43562;43.064;0.160;2023-02-28T08:51:19;41.42;;;18.92;;
57720;SDS011;43562;43.064;0.160;2023-02-28T08:53:55;21.00;;;11.70;;
57720;SDS011;43562;43.064;0.160;2023-02-28T08:56:23;12.18;;;8.55;;
57720;SDS011;43562;43.064;0.160;2023-02-28T08:58:49;8.90;;;7.40;;
57720;SDS011;43562;43.064;0.160;2023-02-28T09:01:17;8.98;;;7.25;;
57720;SDS011;43562;43.064;0.160;2023-02-28T09:03:45;8.35;;;6.75;;
57720;SDS011;43562;43.064;0.160;2023-02-28T09:06:12;9.77;;;7.07;;
57720;SDS011;43562;43.064;0.160;2023-02-28T09:08:39;10.50;;;7.38;;
57720;SDS011;43562;43.064;0.160;2023-02-28T09:11:05;10.00;;;7.93;;
57720;SDS011;43562;43.064;0.160;2023-02-28T09:13:32;10.82;;;7.57;;
57720;SDS011;43562;43.064;0.160;2023-02-28T09:15:59;9.38;;;7.22;;
57720;SDS011;43562;43.064;0.160;2023-02-28T09:18:25;11.55;;;7.28;;
57720;SDS011;43562;43.064;0.160;2023-02-28T09:20:52;9.55;;;7.57;;
57720;SDS011;43562;43.064;0.160;2023-02-28T09:23:18;8.68;;;7.20;;
57720;SDS011;43562;43.064;0.160;2023-02-28T09:25:45;12.30;;;7.63;;
57720;SDS011;43562;43.064;0.160;2023-02-28T09:28:12;10.45;;;7.13;;
57720;SDS011;43562;43.064;0.160;2023-02-28T09:30:40;12.73;;;8.07;;
57720;SDS011;43562;43.064;0.160;2023-02-28T09:33:06;10.07;;;7.47;;
57720;SDS011;43562;43.064;0.160;2023-02-28T09:35:32;13.30;;;8.38;;
57720;SDS011;43562;43.064;0.160;2023-02-28T09:37:59;11.40;;;7.57;;
57720;SDS011;43562;43.064;0.160;2023-02-28T09:40:28;16.10;;;8.43;;
57720;SDS011;43562;43.064;0.160;2023-02-28T09:42:54;11.23;;;8.00;;
57720;SDS011;43562;43.064;0.160;2023-02-28T09:45:32;11.90;;;7.25;;
57720;SDS011;43562;43.064;0.160;2023-02-28T09:47:59;9.73;;;7.15;;
57720;SDS011;43562;43.064;0.160;2023-02-28T09:50:38;10.32;;;7.45;;
57720;SDS011;43562;43.064;0.160;2023-02-28T09:53:19;10.88;;;7.47;;
57720;SDS011;43562;43.064;0.160;2023-02-28T09:55:51;10.80;;;7.78;;
57720;SDS011;43562;43.064;0.160;2023-02-28T09:58:26;12.63;;;8.02;;
57720;SDS011;43562;43.064;0.160;2023-02-28T10:01:18;14.13;;;8.48;;
57720;SDS011;43562;43.064;0.160;2023-02-28T10:03:56;10.82;;;7.68;;
57720;SDS011;43562;43.064;0.160;2023-02-28T10:06:42;9.43;;;7.43;;
57720;SDS011;43562;43.064;0.160;2023-02-28T10:09:30;9.43;;;8.07;;
57720;SDS011;43562;43.064;0.160;2023-02-28T10:12:04;9.93;;;7.75;;
57720;SDS011;43562;43.064;0.160;2023-02-28T10:14:35;9.13;;;7.20;;
57720;SDS011;43562;43.064;0.160;2023-02-28T10:17:10;12.93;;;8.30;;
57720;SDS011;43562;43.064;0.160;2023-02-28T10:19:49;12.00;;;7.95;;
57720;SDS011;43562;43.064;0.160;2023-02-28T10:22:33;15.20;;;8.32;;
57720;SDS011;43562;43.064;0.160;2023-02-28T10:25:00;8.63;;;6.72;;
57720;SDS011;43562;43.064;0.160;2023-02-28T10:27:31;10.05;;;7.15;;
57720;SDS011;43562;43.064;0.160;2023-02-28T10:29:58;9.30;;;6.60;;
57720;SDS011;43562;43.064;0.160;2023-02-28T10:34:57;10.60;;;7.10;;
57720;SDS011;43562;43.064;0.160;2023-02-28T10:37:23;9.30;;;7.53;;
57720;SDS011;43562;43.064;0.160;2023-02-28T10:39:49;9.40;;;7.35;;
57720;SDS011;43562;43.064;0.160;2023-02-28T10:42:23;10.88;;;7.70;;
57720;SDS011;43562;43.064;0.160;2023-02-28T10:47:17;10.32;;;7.70;;
57720;SDS011;43562;43.064;0.160;2023-02-28T10:49:47;10.23;;;8.38;;
57720;SDS011;43562;43.064;0.160;2023-02-28T10:52:13;13.60;;;9.30;;
57720;SDS011;43562;43.064;0.160;2023-02-28T10:54:41;13.43;;;9.75;;
57720;SDS011;43562;43.064;0.160;2023-02-28T10:57:25;17.52;;;9.65;;
57720;SDS011;43562;43.064;0.160;2023-02-28T11:00:05;10.85;;;7.30;;
57720;SDS011;43562;43.064;0.160;2023-02-28T11:02:37;10.77;;;7.82;;
57720;SDS011;43562;43.064;0.160;2023-02-28T11:07:54;11.73;;;8.40;;
57720;SDS011;43562;43.064;0.160;2023-02-28T11:10:21;8.30;;;6.72;;
57720;SDS011;43562;43.064;0.160;2023-02-28T11:12:49;10.07;;;7.95;;
57720;SDS011;43562;43.064;0.160;2023-02-28T11:15:21;10.93;;;7.75;;
57720;SDS011;43562;43.064;0.160;2023-02-28T11:18:23;12.75;;;7.38;;
57720;SDS011;43562;43.064;0.160;2023-02-28T11:20:41;8.20;;;7.00;;
57720;SDS011;43562;43.064;0.160;2023-02-28T11:23:10;8.88;;;7.00;;
57720;SDS011;43562;43.064;0.160;2023-02-28T11:25:38;10.57;;;7.25;;
57720;SDS011;43562;43.064;0.160;2023-02-28T11:28:05;11.85;;;7.80;;
57720;SDS011;43562;43.064;0.160;2023-02-28T11:30:33;8.63;;;6.68;;
57720;SDS011;43562;43.064;0.160;2023-02-28T11:33:00;8.05;;;6.35;;
57720;SDS011;43562;43.064;0.160;2023-02-28T11:35:33;7.57;;;5.60;;
57720;SDS011;43562;43.064;0.160;2023-02-28T11:38:02;6.88;;;5.47;;
57720;SDS011;43562;43.064;0.160;2023-02-28T11:40:30;8.13;;;6.40;;
57720;SDS011;43562;43.064;0.160;2023-02-28T11:43:00;9.00;;;6.05;;
57720;SDS011;43562;43.064;0.160;2023-02-28T11:45:33;9.80;;;6.00;;
57720;SDS011;43562;43.064;0.160;2023-02-28T11:48:11;6.97;;;5.95;;
57720;SDS011;43562;43.064;0.160;2023-02-28T11:55:44;9.10;;;6.00;;
57720;SDS011;43562;43.064;0.160;2023-02-28T11:58:14;9.18;;;6.68;;
57720;SDS011;43562;43.064;0.160;2023-02-28T12:03:29;7.53;;;6.15;;
57720;SDS011;43562;43.064;0.160;2023-02-28T12:11:14;8.93;;;7.20;;
57720;SDS011;43562;43.064;0.160;2023-02-28T12:26:29;8.23;;;6.25;;
57720;SDS011;43562;43.064;0.160;2023-02-28T12:28:59;8.00;;;6.03;;
57720;SDS011;43562;43.064;0.160;2023-02-28T12:31:29;8.85;;;5.40;;
57720;SDS011;43562;43.064;0.160;2023-02-28T12:34:00;7.30;;;5.40;;
57720;SDS011;43562;43.064;0.160;2023-02-28T12:36:27;7.85;;;6.20;;
57720;SDS011;43562;43.064;0.160;2023-02-28T12:41:26;6.63;;;5.68;;
57720;SDS011;43562;43.064;0.160;2023-02-28T12:44:00;6.80;;;5.15;;
57720;SDS011;43562;43.064;0.160;2023-02-28T12:46:34;7.35;;;5.30;;
57720;SDS011;43562;43.064;0.160;2023-02-28T12:49:06;6.07;;;4.78;;
57720;SDS011;43562;43.064;0.160;2023-02-28T12:51:34;5.72;;;5.15;;
57720;SDS011;43562;43.064;0.160;2023-02-28T12:54:04;6.80;;;5.85;;
57720;SDS011;43562;43.064;0.160;2023-02-28T12:59:29;7.30;;;5.63;;
57720;SDS011;43562;43.064;0.160;2023-02-28T13:10:03;6.95;;;5.80;;
57720;SDS011;43562;43.064;0.160;2023-02-28T13:12:32;6.45;;;5.85;;
57720;SDS011;43562;43.064;0.160;2023-02-28T13:15:06;7.68;;;6.20;;
57720;SDS011;43562;43.064;0.160;2023-02-28T13:17:37;5.80;;;5.18;;
57720;SDS011;43562;43.064;0.160;2023-02-28T13:20:14;7.10;;;5.22;;
57720;SDS011;43562;43.064;0.160;2023-02-28T13:22:41;8.48;;;5.45;;
57720;SDS011;43562;43.064;0.160;2023-02-28T13:27:53;6.07;;;5.47;;
57720;SDS011;43562;43.064;0.160;2023-02-28T13:36:36;6.35;;;4.55;;
57720;SDS011;43562;43.064;0.160;2023-02-28T13:38:39;8.88;;;4.35;;
57720;SDS011;43562;43.064;0.160;2023-02-28T13:44:20;6.45;;;5.68;;
57720;SDS011;43562;43.064;0.160;2023-02-28T13:49:27;5.57;;;4.60;;
57720;SDS011;43562;43.064;0.160;2023-02-28T13:57:04;5.80;;;4.80;;
57720;SDS011;43562;43.064;0.160;2023-02-28T13:59:35;8.15;;;4.55;;
57720;SDS011;43562;43.064;0.160;2023-02-28T14:05:00;7.50;;;5.10;;
57720;SDS011;43562;43.064;0.160;2023-02-28T14:07:28;8.65;;;5.68;;
57720;SDS011;43562;43.064;0.160;2023-02-28T14:09:57;8.80;;;5.70;;
57720;SDS011;43562;43.064;0.160;2023-02-28T14:17:55;7.35;;;5.18;;
57720;SDS011;43562;43.064;0.160;2023-02-28T14:20:25;5.80;;;4.32;;
57720;SDS011;43562;43.064;0.160;2023-02-28T14:23:14;6.93;;;5.20;;
57720;SDS011;43562;43.064;0.160;2023-02-28T14:33:19;7.47;;;5.10;;
57720;SDS011;43562;43.064;0.160;2023-02-28T14:38:25;7.68;;;5.00;;
57720;SDS011;43562;43.064;0.160;2023-02-28T14:40:54;7.72;;;6.03;;
57720;SDS011;43562;43.064;0.160;2023-02-28T14:43:27;6.43;;;5.10;;
57720;SDS011;43562;43.064;0.160;2023-02-28T14:45:57;7.80;;;5.57;;
57720;SDS011;43562;43.064;0.160;2023-02-28T14:48:24;7.43;;;5.25;;
57720;SDS011;43562;43.064;0.160;2023-02-28T14:50:51;10.57;;;5.47;;
57720;SDS011;43562;43.064;0.160;2023-02-28T14:53:18;6.05;;;5.40;;
57720;SDS011;43562;43.064;0.160;2023-02-28T14:55:45;8.25;;;5.82;;
57720;SDS011;43562;43.064;0.160;2023-02-28T14:58:22;6.57;;;5.53;;
57720;SDS011;43562;43.064;0.160;2023-02-28T15:00:50;10.55;;;5.88;;
57720;SDS011;43562;43.064;0.160;2023-02-28T15:06:01;8.65;;;5.70;;
57720;SDS011;43562;43.064;0.160;2023-02-28T15:08:27;6.28;;;5.03;;
57720;SDS011;43562;43.064;0.160;2023-02-28T15:11:07;7.05;;;5.35;;
57720;SDS011;43562;43.064;0.160;2023-02-28T15:13:39;8.77;;;5.45;;
57720;SDS011;43562;43.064;0.160;2023-02-28T15:16:39;11.50;;;7.55;;
57720;SDS011;43562;43.064;0.160;2023-02-28T15:21:32;6.60;;;5.88;;
57720;SDS011;43562;43.064;0.160;2023-02-28T15:26:32;7.80;;;6.15;;
57720;SDS011;43562;43.064;0.160;2023-02-28T15:29:00;7.93;;;5.88;;
57720;SDS011;43562;43.064;0.160;2023-02-28T15:31:28;6.55;;;5.32;;
57720;SDS011;43562;43.064;0.160;2023-02-28T15:33:56;7.57;;;6.25;;
57720;SDS011;43562;43.064;0.160;2023-02-28T15:36:26;10.38;;;5.82;;
57720;SDS011;43562;43.064;0.160;2023-02-28T15:38:54;7.97;;;5.22;;
57720;SDS011;43562;43.064;0.160;2023-02-28T15:41:25;6.95;;;5.43;;
57720;SDS011;43562;43.064;0.160;2023-02-28T15:46:36;6.00;;;5.40;;
57720;SDS011;43562;43.064;0.160;2023-02-28T15:49:02;6.68;;;5.97;;
57720;SDS011;43562;43.064;0.160;2023-02-28T15:51:32;6.78;;;5.00;;
57720;SDS011;43562;43.064;0.160;2023-02-28T15:54:04;7.05;;;4.95;;
57720;SDS011;43562;43.064;0.160;2023-02-28T15:56:33;7.40;;;5.45;;
57720;SDS011;43562;43.064;0.160;2023-02-28T15:59:02;6.57;;;5.00;;
57720;SDS011;43562;43.064;0.160;2023-02-28T16:01:29;8.70;;;5.20;;
57720;SDS011;43562;43.064;0.160;2023-02-28T16:03:59;8.07;;;5.80;;
57720;SDS011;43562;43.064;0.160;2023-02-28T16:06:38;12.48;;;9.27;;
57720;SDS011;43562;43.064;0.160;2023-02-28T16:09:08;13.25;;;9.65;;
57720;SDS011;43562;43.064;0.160;2023-02-28T16:11:35;7.72;;;6.50;;
57720;SDS011;43562;43.064;0.160;2023-02-28T16:14:03;12.05;;;8.23;;
57720;SDS011;43562;43.064;0.160;2023-02-28T16:16:29;8.35;;;6.68;;
57720;SDS011;43562;43.064;0.160;2023-02-28T16:18:56;7.47;;;5.15;;
57720;SDS011;43562;43.064;0.160;2023-02-28T16:21:23;8.07;;;5.70;;
57720;SDS011;43562;43.064;0.160;2023-02-28T16:23:49;7.15;;;5.80;;
57720;SDS011;43562;43.064;0.160;2023-02-28T16:26:18;6.30;;;5.47;;
57720;SDS011;43562;43.064;0.160;2023-02-28T16:28:45;6.50;;;5.50;;
57720;SDS011;43562;43.064;0.160;2023-02-28T16:31:11;6.00;;;5.03;;
57720;SDS011;43562;43.064;0.160;2023-02-28T16:33:41;6.65;;;5.10;;
57720;SDS011;43562;43.064;0.160;2023-02-28T16:36:19;6.70;;;5.10;;
57720;SDS011;43562;43.064;0.160;2023-02-28T16:38:45;5.78;;;5.28;;
57720;SDS011;43562;43.064;0.160;2023-02-28T16:41:12;9.05;;;5.63;;
57720;SDS011;43562;43.064;0.160;2023-02-28T16:43:43;7.63;;;5.50;;
57720;SDS011;43562;43.064;0.160;2023-02-28T16:46:10;6.85;;;5.60;;
57720;SDS011;43562;43.064;0.160;2023-02-28T16:48:37;7.82;;;5.38;;
57720;SDS011;43562;43.064;0.160;2023-02-28T16:51:05;7.15;;;5.18;;
57720;SDS011;43562;43.064;0.160;2023-02-28T16:53:31;14.32;;;5.63;;